createdAt,value
2017-06-11T00:00:11.442Z,12.50
2017-06-11T00:02:39.012Z,10.70
2017-06-11T00:05:06.618Z,7.37
2017-06-11T00:07:34.224Z,13.00
2017-06-11T00:10:01.803Z,11.27
2017-06-11T00:12:30.337Z,7.80
2017-06-11T00:14:57.911Z,7.60
2017-06-11T00:17:25.497Z,9.50
2017-06-11T00:19:53.068Z,8.30
2017-06-11T00:22:21.426Z,6.30
2017-06-11T00:24:49.054Z,10.60
2017-06-11T00:27:16.633Z,7.80
2017-06-11T00:29:44.306Z,7.23
2017-06-11T00:32:11.939Z,7.50
2017-06-11T00:34:39.530Z,10.67
2017-06-11T00:37:07.146Z,6.57
2017-06-11T00:39:34.723Z,10.10
2017-06-11T00:42:02.313Z,12.13
2017-06-11T00:44:30.049Z,10.87
2017-06-11T00:46:58.020Z,5.60
2017-06-11T00:49:25.579Z,10.93
2017-06-11T00:51:53.183Z,6.30
2017-06-11T00:54:20.765Z,6.27
2017-06-11T00:56:48.330Z,11.07
2017-06-11T00:59:16.671Z,9.10
2017-06-11T01:01:44.259Z,8.63
2017-06-11T01:04:12.634Z,7.07
2017-06-11T01:06:40.199Z,5.00
2017-06-11T01:09:08.558Z,6.00
2017-06-11T01:11:36.132Z,5.93
2017-06-11T01:14:03.709Z,9.40
2017-06-11T01:16:31.282Z,11.63
2017-06-11T01:18:58.857Z,6.07
2017-06-11T01:21:26.447Z,8.43
2017-06-11T01:23:54.108Z,6.40
2017-06-11T01:26:21.669Z,9.77
2017-06-11T01:28:49.229Z,6.10
2017-06-11T01:31:16.858Z,8.17
2017-06-11T01:33:44.438Z,8.10
2017-06-11T01:36:12.030Z,7.20
2017-06-11T01:38:39.614Z,7.00
2017-06-11T01:41:08.171Z,8.67
2017-06-11T01:43:35.856Z,6.90
2017-06-11T01:46:03.847Z,8.23
2017-06-11T01:48:31.406Z,8.90
2017-06-11T01:50:59.778Z,12.97
2017-06-11T01:53:27.339Z,8.23
2017-06-11T01:55:55.669Z,10.73
2017-06-11T01:58:23.311Z,6.17
2017-06-11T02:00:50.900Z,7.97
2017-06-11T02:03:18.449Z,7.60
2017-06-11T02:05:46.034Z,11.73
2017-06-11T02:08:13.630Z,10.10
2017-06-11T02:10:41.194Z,7.50
2017-06-11T02:13:08.809Z,6.90
2017-06-11T02:15:38.242Z,6.80
2017-06-11T02:18:05.826Z,10.77
2017-06-11T02:20:33.390Z,8.37
2017-06-11T02:23:01.085Z,6.83
2017-06-11T02:25:28.653Z,9.23
2017-06-11T02:27:56.216Z,7.73
2017-06-11T02:30:23.940Z,6.23
2017-06-11T02:32:51.498Z,7.60
2017-06-11T02:35:19.054Z,8.73
2017-06-11T02:37:46.634Z,9.83
2017-06-11T02:40:14.236Z,7.73
2017-06-11T02:42:41.806Z,6.63
2017-06-11T02:45:10.405Z,7.53
2017-06-11T02:47:38.754Z,7.83
2017-06-11T02:50:06.344Z,11.47
2017-06-11T02:52:33.918Z,10.77
2017-06-11T02:55:02.274Z,7.30
2017-06-11T02:57:29.861Z,10.93
2017-06-11T02:59:58.193Z,5.70
2017-06-11T03:02:34.477Z,6.40
2017-06-11T03:05:02.090Z,8.13
2017-06-11T03:07:29.651Z,8.33
2017-06-11T03:09:57.249Z,6.83
2017-06-11T03:12:24.809Z,11.73
2017-06-11T03:14:52.377Z,10.40
2017-06-11T03:17:19.972Z,12.67
2017-06-11T03:19:48.297Z,6.37
2017-06-11T03:22:15.870Z,6.77
2017-06-11T03:24:43.455Z,6.87
2017-06-11T03:27:11.018Z,5.20
2017-06-11T03:29:39.359Z,10.93
2017-06-11T03:32:06.944Z,4.50
2017-06-11T03:34:34.502Z,7.73
2017-06-11T03:37:02.325Z,8.30
2017-06-11T03:39:29.891Z,10.70
2017-06-11T03:41:57.525Z,7.60
2017-06-11T03:44:25.146Z,9.87
2017-06-11T03:46:52.746Z,6.23
2017-06-11T03:49:20.570Z,9.13
2017-06-11T03:51:48.167Z,7.17
2017-06-11T03:54:16.488Z,12.40
2017-06-11T03:56:44.050Z,17.47
2017-06-11T03:59:11.617Z,6.50
2017-06-11T04:01:39.172Z,7.57
2017-06-11T04:04:06.776Z,9.57
2017-06-11T04:06:34.393Z,5.27
2017-06-11T04:09:01.982Z,10.00
2017-06-11T04:11:29.550Z,10.60
2017-06-11T04:13:57.142Z,6.77
2017-06-11T04:16:24.702Z,7.83
2017-06-11T04:18:52.286Z,6.37
2017-06-11T04:21:19.866Z,6.17
2017-06-11T04:23:47.432Z,6.27
2017-06-11T04:26:15.029Z,10.43
2017-06-11T04:28:43.366Z,4.83
2017-06-11T04:31:10.946Z,5.30
2017-06-11T04:33:38.511Z,7.43
2017-06-11T04:36:06.065Z,5.70
2017-06-11T04:38:33.695Z,6.23
2017-06-11T04:41:01.246Z,4.83
2017-06-11T04:43:28.835Z,5.80
2017-06-11T04:45:56.453Z,8.10
2017-06-11T04:48:24.171Z,5.07
2017-06-11T04:50:51.729Z,4.80
2017-06-11T04:53:19.321Z,4.73
2017-06-11T04:55:46.926Z,7.37
2017-06-11T04:58:14.510Z,5.50
2017-06-11T05:00:42.090Z,5.03
2017-06-11T05:03:09.780Z,8.93
2017-06-11T05:05:38.166Z,6.20
2017-06-11T05:08:05.735Z,5.67
2017-06-11T05:10:33.294Z,5.30
2017-06-11T05:13:00.856Z,7.37
2017-06-11T05:15:28.425Z,6.70
2017-06-11T05:17:55.994Z,5.50
2017-06-11T05:20:23.558Z,5.30
2017-06-11T05:22:51.137Z,8.23
2017-06-11T05:25:18.746Z,6.23
2017-06-11T05:27:47.103Z,5.00
2017-06-11T05:30:14.673Z,8.90
2017-06-11T05:32:43.002Z,5.60
2017-06-11T05:35:10.569Z,7.30
2017-06-11T05:37:38.134Z,11.90
2017-06-11T05:40:05.939Z,5.73
2017-06-11T05:42:33.516Z,5.60
2017-06-11T05:45:01.089Z,5.77
2017-06-11T05:47:28.658Z,7.23
2017-06-11T05:49:56.243Z,7.30
2017-06-11T05:52:23.846Z,5.20
2017-06-11T05:54:52.261Z,7.33
2017-06-11T05:57:19.843Z,4.40
2017-06-11T05:59:47.446Z,5.87
2017-06-11T06:02:15.017Z,6.97
2017-06-11T06:04:43.372Z,4.63
2017-06-11T06:07:10.930Z,5.80
2017-06-11T06:09:38.499Z,4.53
2017-06-11T06:12:06.134Z,4.80
2017-06-11T06:14:33.705Z,5.50
2017-06-11T06:17:01.306Z,5.63
2017-06-11T06:19:28.858Z,10.10
2017-06-11T06:21:57.236Z,6.10
2017-06-11T06:24:24.815Z,6.30
2017-06-11T06:26:52.507Z,5.93
2017-06-11T06:29:20.060Z,6.23
2017-06-11T06:31:47.666Z,4.20
2017-06-11T06:34:15.225Z,5.13
2017-06-11T06:36:42.786Z,5.53
2017-06-11T06:39:10.360Z,6.30
2017-06-11T06:41:37.989Z,6.30
2017-06-11T06:44:05.590Z,5.80
2017-06-11T06:46:33.911Z,4.83
2017-06-11T06:49:01.470Z,6.50
2017-06-11T06:51:29.061Z,6.83
2017-06-11T06:53:56.621Z,7.43
2017-06-11T06:56:24.209Z,5.07
2017-06-11T06:58:51.780Z,5.70
2017-06-11T07:01:19.399Z,5.50
2017-06-11T07:03:46.977Z,5.57
2017-06-11T07:06:14.600Z,6.60
2017-06-11T07:08:42.177Z,4.30
2017-06-11T07:11:09.748Z,5.80
2017-06-11T07:13:37.592Z,7.27
2017-06-11T07:16:05.152Z,8.40
2017-06-11T07:18:32.710Z,3.70
2017-06-11T07:21:00.304Z,6.50
2017-06-11T07:23:27.870Z,8.00
2017-06-11T07:25:55.465Z,7.50
2017-06-11T07:28:23.014Z,5.80
2017-06-11T07:30:50.607Z,5.67
2017-06-11T07:33:18.167Z,5.50
2017-06-11T07:35:45.883Z,8.70
2017-06-11T07:38:13.476Z,5.23
2017-06-11T07:40:41.844Z,4.80
2017-06-11T07:43:10.207Z,6.97
2017-06-11T07:45:37.790Z,5.27
2017-06-11T07:48:06.137Z,6.60
2017-06-11T07:50:33.697Z,8.03
2017-06-11T07:53:02.081Z,5.07
2017-06-11T07:55:29.674Z,5.03
2017-06-11T07:57:57.399Z,3.70
2017-06-11T08:00:24.960Z,5.23
2017-06-11T08:02:52.646Z,5.73
2017-06-11T08:05:20.206Z,3.83
2017-06-11T08:07:48.566Z,3.60
2017-06-11T08:10:16.122Z,3.77
2017-06-11T08:12:43.682Z,3.50
2017-06-11T08:15:11.292Z,3.33
2017-06-11T08:17:38.862Z,5.77
2017-06-11T08:20:06.483Z,5.93
2017-06-11T08:22:34.068Z,3.43
2017-06-11T08:25:02.014Z,4.37
2017-06-11T08:27:29.571Z,5.37
2017-06-11T08:29:57.145Z,5.87
2017-06-11T08:32:24.713Z,4.20
2017-06-11T08:34:52.288Z,3.77
2017-06-11T08:37:19.886Z,5.43
2017-06-11T08:39:47.448Z,4.20
2017-06-11T08:42:15.090Z,4.10
2017-06-11T08:44:42.637Z,3.27
2017-06-11T08:47:10.253Z,5.60
2017-06-11T08:49:37.841Z,3.33
2017-06-11T08:52:05.401Z,5.07
2017-06-11T08:54:33.003Z,4.17
2017-06-11T08:57:00.583Z,3.57
2017-06-11T08:59:28.228Z,2.43
2017-06-11T09:01:55.924Z,4.40
2017-06-11T09:04:23.545Z,5.13
2017-06-11T09:06:51.135Z,5.90
2017-06-11T09:09:18.698Z,2.67
2017-06-11T09:11:46.286Z,4.17
2017-06-11T09:14:14.646Z,7.50
2017-06-11T09:16:42.330Z,4.20
2017-06-11T09:19:10.706Z,5.00
2017-06-11T09:21:38.268Z,5.37
2017-06-11T09:24:06.629Z,4.10
2017-06-11T09:26:34.199Z,7.43
2017-06-11T09:29:01.758Z,3.93
2017-06-11T09:31:29.365Z,3.93
2017-06-11T09:33:56.937Z,4.03
2017-06-11T09:36:24.515Z,2.83
2017-06-11T09:38:52.149Z,4.50
2017-06-11T09:41:19.711Z,6.27
2017-06-11T09:43:47.293Z,4.63
2017-06-11T09:46:14.882Z,4.00
2017-06-11T09:48:42.446Z,4.00
2017-06-11T09:51:10.751Z,4.70
2017-06-11T09:53:38.469Z,5.20
2017-06-11T09:56:06.058Z,5.50
2017-06-11T09:58:33.660Z,4.07
2017-06-11T10:01:01.215Z,4.63
2017-06-11T10:03:28.806Z,2.97
2017-06-11T10:05:56.374Z,3.40
2017-06-11T10:08:23.958Z,4.20
2017-06-11T10:10:51.550Z,4.90
2017-06-11T10:13:19.106Z,5.13
2017-06-11T10:15:46.668Z,7.03
2017-06-11T10:18:14.242Z,7.40
2017-06-11T10:20:41.838Z,3.00
2017-06-11T10:23:09.426Z,3.53
2017-06-11T10:25:36.986Z,4.40
2017-06-11T10:28:04.574Z,3.80
2017-06-11T10:30:32.210Z,4.00
2017-06-11T10:32:59.785Z,2.90
2017-06-11T10:35:28.106Z,3.57
2017-06-11T10:37:55.903Z,4.50
2017-06-11T10:40:23.463Z,3.03
2017-06-11T10:42:51.039Z,4.80
2017-06-11T10:45:18.647Z,3.43
2017-06-11T10:47:46.211Z,6.03
2017-06-11T10:50:13.772Z,2.90
2017-06-11T10:52:41.371Z,3.60
2017-06-11T10:55:09.010Z,4.60
2017-06-11T10:57:36.595Z,2.97
2017-06-11T11:00:04.309Z,3.97
2017-06-11T11:02:31.872Z,4.33
2017-06-11T11:04:59.474Z,3.17
2017-06-11T11:07:27.031Z,3.13
2017-06-11T11:09:54.613Z,3.20
2017-06-11T11:12:22.177Z,4.83
2017-06-11T11:14:49.797Z,2.50
2017-06-11T11:17:17.415Z,4.30
2017-06-11T11:19:45.729Z,5.83
2017-06-11T11:22:13.319Z,3.60
2017-06-11T11:24:40.902Z,5.03
2017-06-11T11:27:08.469Z,5.20
2017-06-11T11:29:36.090Z,3.87
2017-06-11T11:32:03.674Z,4.53
2017-06-11T11:34:31.236Z,4.10
2017-06-11T11:36:58.821Z,2.40
2017-06-11T11:39:27.223Z,3.07
2017-06-11T11:41:54.778Z,3.47
2017-06-11T11:44:22.419Z,3.27
2017-06-11T11:46:49.985Z,3.30
2017-06-11T11:49:18.419Z,3.80
2017-06-11T11:51:45.993Z,3.23
2017-06-11T11:54:13.610Z,2.93
2017-06-11T11:56:41.206Z,2.80
2017-06-11T11:59:08.762Z,4.70
2017-06-11T12:01:36.343Z,5.03
2017-06-11T12:04:04.101Z,2.97
2017-06-11T12:06:31.668Z,3.63
2017-06-11T12:08:59.306Z,3.53
2017-06-11T12:11:26.892Z,4.37
2017-06-11T12:13:54.450Z,5.83
2017-06-11T12:16:22.047Z,3.43
2017-06-11T12:18:50.568Z,6.83
2017-06-11T12:21:18.206Z,5.30
2017-06-11T12:23:45.795Z,6.57
2017-06-11T12:26:13.369Z,5.83
2017-06-11T12:28:40.936Z,4.10
2017-06-11T12:31:08.505Z,3.00
2017-06-11T12:33:36.065Z,4.77
2017-06-11T12:36:03.731Z,3.50
2017-06-11T12:38:31.286Z,3.50
2017-06-11T12:40:58.850Z,6.60
2017-06-11T12:43:26.433Z,3.80
2017-06-11T12:45:54.784Z,6.40
2017-06-11T12:48:22.352Z,6.53
2017-06-11T12:50:50.230Z,6.40
2017-06-11T12:53:17.878Z,5.80
2017-06-11T12:55:45.464Z,5.27
2017-06-11T12:58:13.793Z,4.33
2017-06-11T13:00:41.392Z,5.83
2017-06-11T13:03:08.973Z,5.50
2017-06-11T13:05:36.531Z,3.67
2017-06-11T13:08:04.870Z,5.33
2017-06-11T13:10:32.717Z,5.00
2017-06-11T13:13:00.307Z,4.13
2017-06-11T13:15:27.879Z,4.40
2017-06-11T13:17:55.483Z,5.07
2017-06-11T13:20:23.087Z,5.30
2017-06-11T13:22:50.646Z,5.90
2017-06-11T13:25:18.221Z,4.47
2017-06-11T13:27:45.806Z,3.60
2017-06-11T13:30:14.142Z,2.97
2017-06-11T13:32:41.797Z,3.93
2017-06-11T13:35:09.357Z,4.83
2017-06-11T13:37:36.929Z,9.33
2017-06-11T13:40:04.514Z,3.00
2017-06-11T13:42:32.094Z,3.30
2017-06-11T13:45:00.441Z,4.03
2017-06-11T13:47:28.022Z,3.30
2017-06-11T13:49:57.274Z,4.10
2017-06-11T13:52:24.868Z,4.70
2017-06-11T13:54:52.427Z,3.90
2017-06-11T13:57:20.017Z,3.03
2017-06-11T13:59:48.410Z,3.20
2017-06-11T14:02:15.965Z,4.70
2017-06-11T14:04:44.287Z,5.60
2017-06-11T14:07:11.875Z,3.17
2017-06-11T14:09:39.457Z,4.57
2017-06-11T14:12:08.011Z,3.70
2017-06-11T14:14:35.572Z,4.20
2017-06-11T14:17:03.159Z,4.13
2017-06-11T14:19:31.518Z,4.10
2017-06-11T14:21:59.088Z,3.37
2017-06-11T14:24:26.650Z,3.63
2017-06-11T14:26:54.245Z,4.30
2017-06-11T14:29:21.853Z,3.63
2017-06-11T14:31:49.410Z,3.47
2017-06-11T14:34:17.006Z,4.50
2017-06-11T14:36:44.556Z,4.20
2017-06-11T14:39:12.169Z,5.80
2017-06-11T14:41:39.722Z,4.23
2017-06-11T14:44:08.040Z,4.37
2017-06-11T14:46:35.654Z,3.30
2017-06-11T14:49:03.234Z,3.83
2017-06-11T14:51:30.841Z,4.80
2017-06-11T14:53:58.427Z,4.77
2017-06-11T14:56:26.776Z,3.50
2017-06-11T14:58:54.341Z,5.27
2017-06-11T15:01:21.930Z,5.43
2017-06-11T15:03:49.511Z,3.20
2017-06-11T15:06:17.105Z,3.93
2017-06-11T15:08:44.659Z,8.23
2017-06-11T15:11:12.254Z,4.87
2017-06-11T15:13:40.607Z,3.40
2017-06-11T15:16:08.190Z,3.27
2017-06-11T15:18:36.031Z,2.93
2017-06-11T15:21:03.577Z,3.90
2017-06-11T15:23:31.170Z,3.97
2017-06-11T15:25:58.734Z,4.90
2017-06-11T15:28:26.346Z,6.10
2017-06-11T15:30:53.937Z,5.90
2017-06-11T15:33:21.535Z,8.20
2017-06-11T15:35:49.902Z,27.87
2017-06-11T15:38:17.506Z,22.37
2017-06-11T15:40:45.081Z,25.47
2017-06-11T15:43:12.706Z,11.30
2017-06-11T15:45:40.309Z,20.73
2017-06-11T15:48:07.895Z,32.13
2017-06-11T15:50:36.281Z,21.70
2017-06-11T15:53:03.880Z,18.23
2017-06-11T15:55:31.444Z,13.80
2017-06-11T15:57:59.046Z,9.23
2017-06-11T16:00:26.893Z,5.03
2017-06-11T16:02:54.453Z,6.37
2017-06-11T16:05:22.054Z,5.47
2017-06-11T16:07:49.598Z,4.00
2017-06-11T16:10:17.186Z,8.50
2017-06-11T16:12:45.819Z,7.70
2017-06-11T16:15:13.401Z,7.93
2017-06-11T16:17:40.963Z,6.30
2017-06-11T16:20:08.546Z,4.60
2017-06-11T16:22:36.162Z,7.10
2017-06-11T16:25:03.729Z,5.07
2017-06-11T16:27:31.307Z,4.10
2017-06-11T16:29:58.901Z,5.60
2017-06-11T16:32:27.231Z,5.00
2017-06-11T16:34:55.538Z,5.17
2017-06-11T16:37:23.145Z,5.17
2017-06-11T16:39:50.709Z,6.73
2017-06-11T16:42:18.294Z,7.73
2017-06-11T16:44:46.062Z,5.93
2017-06-11T16:47:13.651Z,6.33
2017-06-11T16:49:41.315Z,9.20
2017-06-11T16:52:08.877Z,6.97
2017-06-11T16:54:36.697Z,8.80
2017-06-11T16:57:04.297Z,7.33
2017-06-11T16:59:31.894Z,4.90
2017-06-11T17:02:00.223Z,5.80
2017-06-11T17:04:28.057Z,6.90
2017-06-11T17:06:55.622Z,4.73
2017-06-11T17:09:23.437Z,5.97
2017-06-11T17:11:51.019Z,4.10
2017-06-11T17:14:19.306Z,5.50
2017-06-11T17:16:47.206Z,5.80
2017-06-11T17:19:14.782Z,4.70
2017-06-11T17:21:42.396Z,7.20
2017-06-11T17:24:09.957Z,6.17
2017-06-11T17:26:38.299Z,10.47
2017-06-11T17:29:06.010Z,5.00
2017-06-11T17:31:33.576Z,5.60
2017-06-11T17:34:01.158Z,6.10
2017-06-11T17:36:28.763Z,5.83
2017-06-11T17:38:56.338Z,6.00
2017-06-11T17:41:24.018Z,5.70
2017-06-11T17:43:52.237Z,5.40
2017-06-11T17:46:19.806Z,7.57
2017-06-11T17:48:47.413Z,5.80
2017-06-11T17:51:15.754Z,12.37
2017-06-11T17:53:43.315Z,6.00
2017-06-11T17:56:10.922Z,6.70
2017-06-11T17:58:38.489Z,6.03
2017-06-11T18:01:06.112Z,7.17
2017-06-11T18:03:33.759Z,6.00
2017-06-11T18:06:01.537Z,5.70
2017-06-11T18:08:29.106Z,5.37
2017-06-11T18:10:56.724Z,5.10
2017-06-11T18:13:24.286Z,7.33
2017-06-11T18:15:51.892Z,4.67
2017-06-11T18:18:19.478Z,8.20
2017-06-11T18:20:47.198Z,7.53
2017-06-11T18:23:14.779Z,6.77
2017-06-11T18:25:43.141Z,6.00
2017-06-11T18:28:10.726Z,6.23
2017-06-11T18:30:38.307Z,5.27
2017-06-11T18:33:05.891Z,8.70
2017-06-11T18:35:33.451Z,6.60
2017-06-11T18:38:01.939Z,7.67
2017-06-11T18:40:29.506Z,4.67
2017-06-11T18:42:57.099Z,5.90
2017-06-11T18:45:25.702Z,10.30
2017-06-11T18:47:53.271Z,9.80
2017-06-11T18:50:21.628Z,12.90
2017-06-11T18:52:49.236Z,9.30
2017-06-11T18:55:16.890Z,9.77
2017-06-11T18:57:44.499Z,8.70
2017-06-11T19:00:12.067Z,6.97
2017-06-11T19:02:39.631Z,9.37
2017-06-11T19:05:07.261Z,13.33
2017-06-11T19:07:35.546Z,7.97
2017-06-11T19:10:03.161Z,7.33
2017-06-11T19:12:31.518Z,10.47
2017-06-11T19:14:59.157Z,8.07
2017-06-11T19:17:26.779Z,8.03
2017-06-11T19:19:54.378Z,10.90
2017-06-11T19:22:21.967Z,8.50
2017-06-11T19:24:49.549Z,6.40
2017-06-11T19:27:17.915Z,13.40
2017-06-11T19:29:45.534Z,7.53
2017-06-11T19:32:13.113Z,6.13
2017-06-11T19:34:40.671Z,6.17
2017-06-11T19:37:08.277Z,7.27
2017-06-11T19:39:35.847Z,7.70
2017-06-11T19:42:03.430Z,6.20
2017-06-11T19:44:31.006Z,7.50
2017-06-11T19:46:58.590Z,7.33
2017-06-11T19:49:26.200Z,9.87
2017-06-11T19:51:54.609Z,6.93
2017-06-11T19:54:22.243Z,6.63
2017-06-11T19:56:49.837Z,9.70
2017-06-11T19:59:17.414Z,11.73
2017-06-11T20:01:45.019Z,8.57
2017-06-11T20:04:12.609Z,10.33
2017-06-11T20:06:40.181Z,11.03
2017-06-11T20:09:07.807Z,7.37
2017-06-11T20:11:35.374Z,9.50
2017-06-11T20:14:02.937Z,10.87
2017-06-11T20:16:30.637Z,13.87
2017-06-11T20:18:58.231Z,13.17
2017-06-11T20:21:25.824Z,11.20
2017-06-11T20:23:53.421Z,12.03
2017-06-11T20:26:21.000Z,11.20
2017-06-11T20:28:48.595Z,10.40
2017-06-11T20:31:16.193Z,9.70
2017-06-11T20:33:43.785Z,9.33
2017-06-11T20:36:11.373Z,9.00
2017-06-11T20:38:38.947Z,11.13
2017-06-11T20:41:06.599Z,13.70
2017-06-11T20:43:34.196Z,11.40
2017-06-11T20:46:01.758Z,9.33
2017-06-11T20:48:29.347Z,12.50
2017-06-11T20:50:56.918Z,11.73
2017-06-11T20:53:24.533Z,8.27
2017-06-11T20:55:52.094Z,11.20
2017-06-11T20:58:19.765Z,10.20
2017-06-11T21:00:47.358Z,6.63
2017-06-11T21:03:14.926Z,8.67
2017-06-11T21:05:43.281Z,6.57
2017-06-11T21:08:10.841Z,7.90
2017-06-11T21:10:38.423Z,6.60
2017-06-11T21:13:06.017Z,8.30
2017-06-11T21:15:33.573Z,9.07
2017-06-11T21:18:01.164Z,10.07
2017-06-11T21:20:28.785Z,8.50
2017-06-11T21:22:56.377Z,4.80
2017-06-11T21:25:24.017Z,6.23
2017-06-11T21:27:51.583Z,7.03
2017-06-11T21:30:19.157Z,5.60
2017-06-11T21:32:46.768Z,8.90
2017-06-11T21:35:14.338Z,6.97
2017-06-11T21:37:41.906Z,6.97
2017-06-11T21:40:09.650Z,5.87
2017-06-11T21:42:37.219Z,6.80
2017-06-11T21:45:04.785Z,4.90
2017-06-11T21:47:33.141Z,6.70
2017-06-11T21:50:00.707Z,8.00
2017-06-11T21:52:28.305Z,12.27
2017-06-11T21:54:55.878Z,8.63
2017-06-11T21:57:23.446Z,10.13
2017-06-11T21:59:51.024Z,14.90
2017-06-11T22:02:18.589Z,8.43
2017-06-11T22:04:46.146Z,11.83
2017-06-11T22:07:13.742Z,12.77
2017-06-11T22:09:41.329Z,12.07
2017-06-11T22:12:08.907Z,14.10
2017-06-11T22:14:36.465Z,11.40
2017-06-11T22:17:04.036Z,11.90
2017-06-11T22:19:31.616Z,10.73
2017-06-11T22:21:59.186Z,10.53
2017-06-11T22:24:26.793Z,11.30
2017-06-11T22:26:54.369Z,15.40
2017-06-11T22:29:21.965Z,11.10
2017-06-11T22:31:49.563Z,11.53
2017-06-11T22:34:17.122Z,9.80
2017-06-11T22:36:45.454Z,9.43
2017-06-11T22:39:13.043Z,7.60
2017-06-11T22:41:41.430Z,7.50
2017-06-11T22:44:09.031Z,9.70
2017-06-11T22:46:36.583Z,6.17
2017-06-11T22:49:04.171Z,5.37
2017-06-11T22:51:31.754Z,7.43
2017-06-11T22:53:59.393Z,8.20
2017-06-11T22:56:26.982Z,5.27
2017-06-11T22:58:54.549Z,5.40
2017-06-11T23:01:22.115Z,6.63
2017-06-11T23:03:49.692Z,6.87
2017-06-11T23:06:18.046Z,5.30
2017-06-11T23:08:45.600Z,4.70
2017-06-11T23:11:13.190Z,4.13
2017-06-11T23:13:40.742Z,7.17
2017-06-11T23:16:08.327Z,3.97
2017-06-11T23:18:35.898Z,4.00
2017-06-11T23:21:03.458Z,2.80
2017-06-11T23:23:31.030Z,2.90
2017-06-11T23:25:58.674Z,2.73
2017-06-11T23:28:26.221Z,2.00
2017-06-11T23:30:53.786Z,2.60
2017-06-11T23:33:22.145Z,2.23
2017-06-11T23:35:49.803Z,6.00
2017-06-11T23:38:17.365Z,4.40
2017-06-11T23:40:44.955Z,2.23
2017-06-11T23:43:12.518Z,2.90
2017-06-11T23:45:40.115Z,4.57
2017-06-11T23:48:07.676Z,3.90
2017-06-11T23:50:35.233Z,4.70
2017-06-11T23:53:02.805Z,4.03
2017-06-11T23:55:30.390Z,7.60
2017-06-11T23:57:58.031Z,4.23
